createdAt,value
2023-02-13T00:00:29.069Z,77.27
2023-02-13T00:01:00.816Z,77.40
2023-02-13T00:01:32.679Z,77.36
2023-02-13T00:02:04.372Z,77.57
2023-02-13T00:02:36.073Z,77.18
2023-02-13T00:03:07.781Z,77.37
2023-02-13T00:03:39.488Z,77.08
2023-02-13T00:04:11.506Z,77.46
2023-02-13T00:04:43.437Z,77.33
2023-02-13T00:05:15.252Z,76.79
2023-02-13T00:05:47.160Z,76.53
2023-02-13T00:06:18.812Z,77.38
2023-02-13T00:06:50.555Z,76.70
2023-02-13T00:07:22.213Z,77.69
2023-02-13T00:07:53.861Z,77.51
2023-02-13T00:08:25.532Z,76.89
2023-02-13T00:08:57.201Z,77.18
2023-02-13T00:09:28.850Z,77.49
2023-02-13T00:10:00.524Z,76.40
2023-02-13T00:10:32.218Z,77.11
2023-02-13T00:11:03.937Z,76.94
2023-02-13T00:11:35.598Z,76.68
2023-02-13T00:12:08.410Z,77.11
2023-02-13T00:12:40.377Z,76.64
2023-02-13T00:13:12.067Z,76.84
2023-02-13T00:13:43.754Z,77.19
2023-02-13T00:14:15.437Z,76.32
2023-02-13T00:14:47.054Z,77.30
2023-02-13T00:15:18.940Z,77.44
2023-02-13T00:16:01.541Z,76.60
2023-02-13T00:16:33.679Z,76.35
2023-02-13T00:17:06.486Z,76.45
2023-02-13T00:17:38.180Z,76.87
2023-02-13T00:18:09.950Z,77.58
2023-02-13T00:18:41.589Z,77.49
2023-02-13T00:19:13.307Z,77.27
2023-02-13T00:19:45.063Z,77.14
2023-02-13T00:20:16.769Z,76.74
2023-02-13T00:21:04.943Z,77.12
2023-02-13T00:21:36.649Z,76.49
2023-02-13T00:22:08.699Z,76.80
2023-02-13T00:22:40.390Z,77.39
2023-02-13T00:23:12.006Z,77.49
2023-02-13T00:23:43.674Z,77.26
2023-02-13T00:24:16.324Z,76.92
2023-02-13T00:24:48.082Z,76.46
2023-02-13T00:25:19.823Z,76.58
2023-02-13T00:25:51.524Z,76.33
2023-02-13T00:26:23.275Z,77.31
2023-02-13T00:26:54.937Z,77.19
2023-02-13T00:27:26.560Z,76.99
2023-02-13T00:27:58.234Z,76.86
2023-02-13T00:28:30.000Z,77.33
2023-02-13T00:29:01.681Z,77.24
2023-02-13T00:29:33.313Z,76.82
2023-02-13T00:30:05.668Z,77.47
2023-02-13T00:30:37.369Z,76.95
2023-02-13T00:31:20.434Z,76.82
2023-02-13T00:31:52.341Z,77.72
2023-02-13T00:32:24.308Z,76.69
2023-02-13T00:32:56.023Z,76.89
2023-02-13T00:33:27.715Z,76.93
2023-02-13T00:33:59.377Z,77.25
2023-02-13T00:34:31.044Z,77.45
2023-02-13T00:35:02.908Z,77.88
2023-02-13T00:35:34.568Z,76.74
2023-02-13T00:36:08.266Z,76.65
2023-02-13T00:36:39.983Z,77.48
2023-02-13T00:37:11.710Z,76.90
2023-02-13T00:37:43.386Z,77.69
2023-02-13T00:38:15.027Z,77.69
2023-02-13T00:38:47.766Z,76.75
2023-02-13T00:39:19.486Z,77.79
2023-02-13T00:39:51.151Z,77.24
2023-02-13T00:40:22.810Z,77.09
2023-02-13T00:40:54.462Z,77.37
2023-02-13T00:41:26.280Z,76.75
2023-02-13T00:41:57.945Z,77.26
2023-02-13T00:42:29.674Z,77.32
2023-02-13T00:43:01.377Z,77.62
2023-02-13T00:43:33.542Z,77.90
2023-02-13T00:44:05.199Z,77.43
2023-02-13T00:44:36.861Z,77.34
2023-02-13T00:45:09.033Z,77.31
2023-02-13T00:45:40.754Z,77.72
2023-02-13T00:46:12.567Z,77.32
2023-02-13T00:46:44.333Z,78.05
2023-02-13T00:47:16.147Z,78.11
2023-02-13T00:47:47.835Z,77.71
2023-02-13T00:48:19.563Z,77.65
2023-02-13T00:48:51.651Z,78.04
2023-02-13T00:49:23.336Z,77.32
2023-02-13T00:49:55.093Z,77.45
2023-02-13T00:50:26.794Z,77.71
2023-02-13T00:50:58.892Z,76.79
2023-02-13T00:51:30.796Z,77.56
2023-02-13T00:52:02.492Z,77.12
2023-02-13T00:52:34.147Z,77.94
2023-02-13T00:53:05.857Z,77.23
2023-02-13T00:53:38.551Z,77.42
2023-02-13T00:54:10.241Z,77.53
2023-02-13T00:54:41.992Z,77.78
2023-02-13T00:55:13.689Z,77.20
2023-02-13T00:55:45.410Z,76.95
2023-02-13T00:56:17.100Z,78.11
2023-02-13T00:56:49.779Z,77.75
2023-02-13T00:57:21.428Z,78.04
2023-02-13T00:57:53.153Z,77.78
2023-02-13T00:58:25.221Z,77.74
2023-02-13T00:58:56.934Z,77.21
2023-02-13T00:59:28.709Z,77.81
2023-02-13T01:00:00.377Z,78.09
2023-02-13T01:00:32.262Z,77.31
2023-02-13T01:01:04.012Z,77.79
2023-02-13T01:01:35.693Z,78.25
2023-02-13T01:02:07.425Z,78.66
2023-02-13T01:02:39.080Z,78.37
2023-02-13T01:03:10.824Z,78.10
2023-02-13T01:03:42.758Z,77.44
2023-02-13T01:04:14.455Z,78.06
2023-02-13T01:04:46.104Z,78.05
2023-02-13T01:05:17.941Z,77.49
2023-02-13T01:05:49.658Z,77.14
2023-02-13T01:06:21.367Z,77.31
2023-02-13T01:06:53.048Z,77.87
2023-02-13T01:07:24.724Z,77.52
2023-02-13T01:07:56.500Z,77.97
2023-02-13T01:08:30.983Z,78.06
2023-02-13T01:09:04.101Z,77.51
2023-02-13T01:09:35.858Z,76.90
2023-02-13T01:10:08.010Z,77.47
2023-02-13T01:10:41.058Z,77.02
2023-02-13T01:11:12.801Z,76.99
2023-02-13T01:11:44.515Z,77.09
2023-02-13T01:12:16.179Z,77.49
2023-02-13T01:12:47.838Z,76.93
2023-02-13T01:13:19.563Z,76.77
2023-02-13T01:13:51.338Z,77.66
2023-02-13T01:14:23.114Z,76.67
2023-02-13T01:14:54.772Z,77.37
2023-02-13T01:15:26.505Z,77.52
2023-02-13T01:15:58.407Z,76.57
2023-02-13T01:16:30.118Z,77.12
2023-02-13T01:17:01.768Z,76.43
2023-02-13T01:17:33.415Z,76.56
2023-02-13T01:18:05.136Z,76.20
2023-02-13T01:18:37.108Z,77.19
2023-02-13T01:19:08.780Z,76.71
2023-02-13T01:19:41.211Z,77.05
2023-02-13T01:20:14.347Z,77.38
2023-02-13T01:20:55.676Z,76.82
2023-02-13T01:21:27.661Z,77.08
2023-02-13T01:21:59.317Z,77.14
2023-02-13T01:22:30.987Z,77.28
2023-02-13T01:23:02.702Z,76.94
2023-02-13T01:23:37.546Z,77.18
2023-02-13T01:24:09.181Z,76.44
2023-02-13T01:24:40.957Z,76.85
2023-02-13T01:25:12.632Z,77.43
2023-02-13T01:25:44.491Z,77.12
2023-02-13T01:26:24.513Z,77.30
2023-02-13T01:26:56.232Z,77.19
2023-02-13T01:27:29.007Z,76.36
2023-02-13T01:28:00.698Z,76.94
2023-02-13T01:28:32.478Z,76.66
2023-02-13T01:29:04.283Z,76.57
2023-02-13T01:29:35.929Z,76.58
2023-02-13T01:30:13.545Z,76.32
2023-02-13T01:30:45.227Z,76.17
2023-02-13T01:31:17.033Z,76.52
2023-02-13T01:31:48.892Z,76.16
2023-02-13T01:32:21.424Z,76.56
2023-02-13T01:32:53.090Z,76.43
2023-02-13T01:33:27.077Z,76.98
2023-02-13T01:33:59.740Z,76.40
2023-02-13T01:34:34.834Z,77.40
2023-02-13T01:35:07.100Z,77.32
2023-02-13T01:35:41.819Z,77.19
2023-02-13T01:36:14.415Z,76.76
2023-02-13T01:36:46.187Z,77.36
2023-02-13T01:37:18.000Z,76.15
2023-02-13T01:37:49.651Z,76.33
2023-02-13T01:38:21.616Z,77.23
2023-02-13T01:38:55.753Z,77.16
2023-02-13T01:39:27.404Z,77.09
2023-02-13T01:39:59.118Z,76.51
2023-02-13T01:40:31.892Z,76.24
2023-02-13T01:41:04.574Z,76.97
2023-02-13T01:41:36.213Z,76.76
2023-02-13T01:42:17.464Z,76.54
2023-02-13T01:42:49.114Z,75.95
2023-02-13T01:43:24.626Z,76.21
2023-02-13T01:43:59.778Z,76.52
2023-02-13T01:44:55.134Z,76.28
2023-02-13T01:45:30.663Z,76.52
2023-02-13T01:46:02.966Z,76.94
2023-02-13T01:46:40.484Z,77.26
2023-02-13T01:47:15.454Z,77.17
2023-02-13T01:47:53.142Z,77.10
2023-02-13T01:48:28.303Z,76.70
2023-02-13T01:49:13.809Z,77.12
2023-02-13T01:49:47.461Z,77.27
2023-02-13T01:50:27.527Z,76.99
2023-02-13T01:51:08.696Z,77.13
2023-02-13T01:51:42.022Z,76.34
2023-02-13T01:52:15.680Z,77.11
2023-02-13T01:52:59.814Z,77.01
2023-02-13T01:53:40.523Z,76.73
2023-02-13T01:54:19.712Z,76.76
2023-02-13T01:54:51.404Z,76.94
2023-02-13T01:55:26.112Z,76.43
2023-02-13T01:56:13.566Z,76.51
2023-02-13T01:56:52.527Z,76.23
2023-02-13T01:57:28.812Z,77.26
2023-02-13T01:58:10.030Z,76.67
2023-02-13T01:58:46.259Z,76.20
2023-02-13T01:59:23.624Z,76.33
2023-02-13T02:00:09.526Z,76.86
2023-02-13T02:00:43.423Z,76.61
2023-02-13T02:01:15.133Z,76.00
2023-02-13T02:01:48.009Z,76.25
2023-02-13T02:02:22.257Z,76.08
2023-02-13T02:03:19.245Z,77.09
2023-02-13T02:04:11.685Z,76.40
2023-02-13T02:04:45.938Z,76.84
2023-02-13T02:05:20.545Z,76.38
2023-02-13T02:05:57.129Z,76.67
2023-02-13T02:06:34.026Z,77.21
2023-02-13T02:07:24.528Z,75.92
2023-02-13T02:08:00.382Z,76.92
2023-02-13T02:08:33.517Z,76.04
2023-02-13T02:09:17.066Z,76.47
2023-02-13T02:09:51.975Z,76.84
2023-02-13T02:10:24.801Z,76.52
2023-02-13T02:11:02.647Z,77.21
2023-02-13T02:11:46.755Z,76.87
2023-02-13T02:12:26.639Z,76.37
2023-02-13T02:13:19.609Z,76.09
2023-02-13T02:13:52.205Z,77.15
2023-02-13T02:14:23.891Z,76.27
2023-02-13T02:14:59.065Z,76.70
2023-02-13T02:15:31.165Z,76.28
2023-02-13T02:16:02.922Z,77.19
2023-02-13T02:16:34.703Z,77.17
2023-02-13T02:17:06.907Z,77.45
2023-02-13T02:17:38.636Z,77.31
2023-02-13T02:18:21.838Z,76.60
2023-02-13T02:18:53.651Z,77.14
2023-02-13T02:19:47.333Z,76.43
2023-02-13T02:20:24.922Z,77.12
2023-02-13T02:21:08.490Z,77.34
2023-02-13T02:22:01.875Z,76.61
2023-02-13T02:23:14.658Z,76.74
2023-02-13T02:24:10.650Z,77.42
2023-02-13T02:25:03.783Z,76.43
2023-02-13T02:26:17.626Z,76.65
2023-02-13T02:27:01.516Z,76.77
2023-02-13T02:28:03.952Z,76.33
2023-02-13T02:28:50.634Z,77.53
2023-02-13T02:29:46.613Z,76.47
2023-02-13T02:30:18.258Z,76.98
2023-02-13T02:31:08.390Z,77.21
2023-02-13T02:31:54.778Z,76.90
2023-02-13T02:32:54.759Z,77.25
2023-02-13T02:33:37.372Z,77.35
2023-02-13T02:34:22.758Z,77.63
2023-02-13T02:35:27.591Z,76.62
2023-02-13T02:36:38.277Z,77.55
2023-02-13T02:37:47.272Z,77.23
2023-02-13T02:38:45.028Z,76.24
2023-02-13T02:39:27.158Z,76.60
2023-02-13T02:40:17.214Z,77.08
2023-02-13T02:41:10.072Z,76.55
2023-02-13T02:41:49.099Z,77.09
2023-02-13T02:42:26.371Z,76.50
2023-02-13T02:43:08.298Z,76.49
2023-02-13T02:43:55.378Z,76.28
2023-02-13T02:44:50.153Z,76.20
2023-02-13T02:45:27.616Z,76.57
2023-02-13T02:46:32.429Z,77.33
2023-02-13T02:47:34.521Z,76.13
2023-02-13T02:48:39.367Z,76.56
2023-02-13T02:49:35.426Z,76.89
2023-02-13T02:50:26.739Z,76.58
2023-02-13T02:51:15.716Z,76.94
2023-02-13T02:52:06.902Z,76.84
2023-02-13T02:52:53.387Z,77.88
2023-02-13T02:53:57.083Z,76.52
2023-02-13T02:54:59.027Z,76.75
2023-02-13T02:55:45.512Z,76.71
2023-02-13T02:56:31.066Z,76.38
2023-02-13T02:57:49.497Z,77.52
2023-02-13T02:58:58.397Z,77.16
2023-02-13T02:59:51.236Z,77.69
2023-02-13T03:00:44.620Z,77.57
2023-02-13T03:01:39.279Z,77.68
2023-02-13T03:02:30.927Z,77.24
2023-02-13T03:03:24.785Z,78.12
2023-02-13T03:04:17.215Z,78.11
2023-02-13T03:05:11.713Z,77.86
2023-02-13T03:06:05.837Z,77.28
2023-02-13T03:06:51.862Z,77.27
2023-02-13T03:07:23.536Z,77.29
2023-02-13T03:07:55.176Z,76.52
2023-02-13T03:08:47.828Z,76.95
2023-02-13T03:09:47.635Z,76.55
2023-02-13T03:10:52.637Z,76.78
2023-02-13T03:11:43.032Z,76.89
2023-02-13T03:12:39.921Z,76.98
2023-02-13T03:13:30.276Z,77.06
2023-02-13T03:14:06.493Z,77.30
2023-02-13T03:14:38.268Z,76.44
2023-02-13T03:15:10.501Z,76.60
2023-02-13T03:16:03.631Z,76.54
2023-02-13T03:16:53.994Z,76.86
2023-02-13T03:17:44.235Z,77.34
2023-02-13T03:18:34.814Z,76.89
2023-02-13T03:19:36.701Z,76.47
2023-02-13T03:20:42.039Z,76.84
2023-02-13T03:21:42.980Z,76.38
2023-02-13T03:22:36.145Z,77.50
2023-02-13T03:23:34.117Z,77.32
2023-02-13T03:24:17.689Z,77.68
2023-02-13T03:25:12.173Z,77.11
2023-02-13T03:25:55.970Z,76.96
2023-02-13T03:26:53.440Z,77.39
2023-02-13T03:28:24.982Z,76.91
2023-02-13T03:29:42.896Z,77.16
2023-02-13T03:30:33.967Z,77.08
2023-02-13T03:31:24.128Z,77.48
2023-02-13T03:32:03.395Z,76.87
2023-02-13T03:32:43.750Z,76.80
2023-02-13T03:33:34.930Z,77.53
2023-02-13T03:34:15.621Z,77.72
2023-02-13T03:35:23.900Z,77.37
2023-02-13T03:36:18.672Z,76.89
2023-02-13T03:37:20.103Z,77.63
2023-02-13T03:38:01.164Z,76.60
2023-02-13T03:38:46.952Z,76.76
2023-02-13T03:39:36.167Z,77.48
2023-02-13T03:40:18.168Z,77.83
2023-02-13T03:41:15.570Z,77.21
2023-02-13T03:42:02.864Z,78.04
2023-02-13T03:42:41.642Z,77.01
2023-02-13T03:43:17.404Z,77.99
2023-02-13T03:44:05.057Z,77.85
2023-02-13T03:44:41.995Z,77.34
2023-02-13T03:45:40.241Z,77.87
2023-02-13T03:46:12.691Z,77.49
2023-02-13T03:46:51.410Z,77.74
2023-02-13T03:47:23.153Z,77.57
2023-02-13T03:48:01.220Z,78.29
2023-02-13T03:48:54.763Z,77.25
2023-02-13T03:49:59.540Z,78.36
2023-02-13T03:50:31.314Z,78.05
2023-02-13T03:51:05.939Z,77.53
2023-02-13T03:51:46.473Z,78.24
2023-02-13T03:52:31.488Z,78.35
2023-02-13T03:53:10.434Z,77.32
2023-02-13T03:53:46.776Z,77.50
2023-02-13T03:54:46.436Z,78.16
2023-02-13T03:55:41.404Z,77.26
2023-02-13T03:56:35.368Z,77.23
2023-02-13T03:57:26.674Z,78.10
2023-02-13T03:58:27.936Z,78.03
2023-02-13T03:59:18.836Z,77.43
2023-02-13T03:59:50.920Z,77.34
2023-02-13T04:00:26.667Z,77.02
2023-02-13T04:01:02.816Z,77.33
2023-02-13T04:01:37.925Z,77.60
2023-02-13T04:02:17.144Z,77.62
2023-02-13T04:03:22.318Z,78.04
2023-02-13T04:04:23.157Z,78.04
2023-02-13T04:05:02.043Z,77.77
2023-02-13T04:05:41.353Z,78.38
2023-02-13T04:06:15.233Z,78.28
2023-02-13T04:06:57.844Z,77.42
2023-02-13T04:07:29.781Z,76.97
2023-02-13T04:08:01.517Z,77.39
2023-02-13T04:08:33.360Z,77.00
2023-02-13T04:09:05.028Z,78.01
2023-02-13T04:09:41.880Z,78.41
2023-02-13T04:10:17.432Z,77.61
2023-02-13T04:11:34.245Z,77.70
2023-02-13T04:12:40.788Z,78.17
2023-02-13T04:13:26.378Z,78.83
2023-02-13T04:14:01.069Z,78.10
2023-02-13T04:14:41.375Z,78.03
2023-02-13T04:15:21.012Z,78.13
2023-02-13T04:15:59.487Z,78.88
2023-02-13T04:16:45.093Z,78.93
2023-02-13T04:17:25.053Z,78.16
2023-02-13T04:18:18.324Z,78.30
2023-02-13T04:18:53.216Z,78.26
2023-02-13T04:19:27.220Z,78.36
2023-02-13T04:19:59.277Z,78.32
2023-02-13T04:20:32.892Z,77.98
2023-02-13T04:21:07.051Z,78.36
2023-02-13T04:21:40.686Z,78.85
2023-02-13T04:22:13.033Z,78.96
2023-02-13T04:22:47.864Z,77.82
2023-02-13T04:23:20.094Z,78.43
2023-02-13T04:23:51.736Z,78.80
2023-02-13T04:24:23.898Z,78.49
2023-02-13T04:24:55.546Z,79.17
2023-02-13T04:25:27.218Z,79.28
2023-02-13T04:26:03.614Z,78.73
2023-02-13T04:26:43.788Z,79.45
2023-02-13T04:27:17.456Z,79.08
2023-02-13T04:27:49.143Z,78.10
2023-02-13T04:28:20.846Z,79.06
2023-02-13T04:28:52.561Z,77.95
2023-02-13T04:29:26.247Z,77.86
2023-02-13T04:29:57.915Z,78.27
2023-02-13T04:30:29.972Z,78.72
2023-02-13T04:31:01.920Z,78.59
2023-02-13T04:31:33.964Z,77.68
2023-02-13T04:32:05.673Z,78.66
2023-02-13T04:32:37.336Z,78.27
2023-02-13T04:33:09.109Z,78.48
2023-02-13T04:33:40.849Z,78.20
2023-02-13T04:34:12.505Z,78.27
2023-02-13T04:34:44.342Z,77.40
2023-02-13T04:35:16.409Z,77.87
2023-02-13T04:35:48.068Z,77.34
2023-02-13T04:36:19.720Z,78.36
2023-02-13T04:36:51.379Z,77.92
2023-02-13T04:37:23.023Z,77.41
2023-02-13T04:37:54.703Z,78.26
2023-02-13T04:38:26.305Z,78.20
2023-02-13T04:38:58.077Z,78.16
2023-02-13T04:39:29.963Z,77.35
2023-02-13T04:40:01.685Z,78.22
2023-02-13T04:40:33.384Z,77.62
2023-02-13T04:41:05.194Z,78.52
2023-02-13T04:41:37.194Z,77.77
2023-02-13T04:42:08.846Z,77.63
2023-02-13T04:42:40.510Z,77.34
2023-02-13T04:43:12.258Z,78.21
2023-02-13T04:43:43.928Z,77.67
2023-02-13T04:44:18.599Z,77.79
2023-02-13T04:44:50.311Z,77.28
2023-02-13T04:45:22.061Z,77.08
2023-02-13T04:45:53.769Z,77.06
2023-02-13T04:46:25.658Z,77.74
2023-02-13T04:46:57.370Z,77.88
2023-02-13T04:47:29.071Z,77.57
2023-02-13T04:48:00.733Z,77.19
2023-02-13T04:48:32.456Z,77.25
2023-02-13T04:49:04.159Z,77.15
2023-02-13T04:49:35.824Z,77.23
2023-02-13T04:50:08.009Z,76.88
2023-02-13T04:50:39.720Z,77.96
2023-02-13T04:51:11.373Z,77.66
2023-02-13T04:51:43.005Z,77.17
2023-02-13T04:52:15.629Z,77.64
2023-02-13T04:52:47.598Z,77.66
2023-02-13T04:53:19.287Z,77.13
2023-02-13T04:53:50.965Z,77.61
2023-02-13T04:54:22.633Z,77.12
2023-02-13T04:54:54.307Z,77.42
2023-02-13T04:55:28.125Z,77.08
2023-02-13T04:55:59.794Z,77.63
2023-02-13T04:56:31.429Z,78.02
2023-02-13T04:57:03.201Z,77.38
2023-02-13T04:57:35.034Z,78.71
2023-02-13T04:58:06.738Z,77.86
2023-02-13T04:58:38.461Z,78.59
2023-02-13T04:59:10.094Z,78.24
2023-02-13T04:59:41.818Z,78.90
2023-02-13T05:00:13.830Z,78.22
2023-02-13T05:00:45.501Z,78.41
2023-02-13T05:01:18.558Z,78.65
2023-02-13T05:01:50.245Z,78.37
2023-02-13T05:02:21.871Z,77.85
2023-02-13T05:02:54.256Z,78.64
2023-02-13T05:03:25.927Z,78.20
2023-02-13T05:03:57.644Z,77.72
2023-02-13T05:04:29.420Z,77.98
2023-02-13T05:05:01.101Z,77.32
2023-02-13T05:05:33.225Z,77.23
2023-02-13T05:06:05.022Z,77.30
2023-02-13T05:06:38.108Z,77.84
2023-02-13T05:07:09.800Z,77.90
2023-02-13T05:07:42.599Z,77.76
2023-02-13T05:08:14.278Z,77.25
2023-02-13T05:08:46.026Z,76.83
2023-02-13T05:09:17.697Z,77.27
2023-02-13T05:09:49.326Z,77.84
2023-02-13T05:10:21.080Z,77.62
2023-02-13T05:10:52.699Z,77.76
2023-02-13T05:11:24.389Z,77.81
2023-02-13T05:11:56.061Z,78.06
2023-02-13T05:12:27.748Z,77.53
2023-02-13T05:13:00.054Z,76.83
2023-02-13T05:13:31.896Z,77.32
2023-02-13T05:14:03.530Z,76.71
2023-02-13T05:14:35.262Z,77.93
2023-02-13T05:15:07.230Z,77.21
2023-02-13T05:15:38.897Z,77.88
2023-02-13T05:16:10.659Z,77.02
2023-02-13T05:16:42.320Z,77.04
2023-02-13T05:17:13.969Z,78.05
2023-02-13T05:17:46.860Z,77.55
2023-02-13T05:18:19.658Z,78.29
2023-02-13T05:18:54.885Z,78.43
2023-02-13T05:19:26.587Z,77.76
2023-02-13T05:19:59.238Z,77.55
2023-02-13T05:20:30.906Z,78.46
2023-02-13T05:21:21.361Z,78.47
2023-02-13T05:22:11.866Z,78.47
2023-02-13T05:23:06.187Z,77.95
2023-02-13T05:23:37.887Z,77.74
2023-02-13T05:24:09.530Z,77.49
2023-02-13T05:24:41.202Z,78.26
2023-02-13T05:25:12.854Z,77.42
2023-02-13T05:25:44.488Z,78.34
2023-02-13T05:26:16.205Z,77.39
2023-02-13T05:26:47.883Z,78.01
2023-02-13T05:27:19.638Z,77.12
2023-02-13T05:27:51.255Z,78.09
2023-02-13T05:28:41.806Z,77.72
2023-02-13T05:29:19.439Z,77.72
2023-02-13T05:29:51.188Z,77.38
2023-02-13T05:30:22.883Z,77.25
2023-02-13T05:30:54.594Z,76.73
2023-02-13T05:31:26.447Z,76.81
2023-02-13T05:32:00.020Z,76.84
2023-02-13T05:32:33.122Z,76.85
2023-02-13T05:33:04.799Z,77.45
2023-02-13T05:33:36.485Z,77.32
2023-02-13T05:34:08.176Z,76.38
2023-02-13T05:34:39.815Z,77.16
2023-02-13T05:35:11.461Z,76.98
2023-02-13T05:35:43.126Z,76.27
2023-02-13T05:36:14.812Z,76.38
2023-02-13T05:36:46.657Z,77.14
2023-02-13T05:37:18.414Z,77.13
2023-02-13T05:37:50.468Z,76.65
2023-02-13T05:38:22.216Z,76.91
2023-02-13T05:38:53.949Z,77.77
2023-02-13T05:39:25.576Z,77.85
2023-02-13T05:39:57.273Z,77.83
2023-02-13T05:40:28.924Z,77.17
2023-02-13T05:41:01.319Z,77.61
2023-02-13T05:41:33.251Z,78.22
2023-02-13T05:42:05.111Z,78.36
2023-02-13T05:42:36.951Z,78.24
2023-02-13T05:43:08.669Z,78.02
2023-02-13T05:43:40.380Z,78.34
2023-02-13T05:44:13.073Z,78.08
2023-02-13T05:44:44.719Z,77.68
2023-02-13T05:45:16.367Z,78.21
2023-02-13T05:45:48.370Z,77.99
2023-02-13T05:46:20.092Z,77.34
2023-02-13T05:46:53.301Z,77.35
2023-02-13T05:47:25.041Z,77.25
2023-02-13T05:47:56.730Z,77.40
2023-02-13T05:48:28.393Z,77.80
2023-02-13T05:49:00.130Z,77.28
2023-02-13T05:49:31.800Z,78.18
2023-02-13T05:50:03.627Z,77.38
2023-02-13T05:50:35.253Z,78.10
2023-02-13T05:51:06.958Z,78.08
2023-02-13T05:51:38.664Z,77.70
2023-02-13T05:52:10.391Z,76.96
2023-02-13T05:52:42.022Z,76.77
2023-02-13T05:53:13.697Z,77.50
2023-02-13T05:53:45.413Z,77.23
2023-02-13T05:54:17.494Z,77.97
2023-02-13T05:54:49.171Z,78.01
2023-02-13T05:55:20.849Z,77.23
2023-02-13T05:55:52.516Z,77.22
2023-02-13T05:56:24.261Z,77.83
2023-02-13T05:56:55.975Z,78.01
2023-02-13T05:57:27.652Z,77.88
2023-02-13T05:57:59.377Z,77.02
2023-02-13T05:58:31.451Z,77.29
2023-02-13T05:59:03.653Z,77.08
2023-02-13T05:59:35.355Z,77.03
2023-02-13T06:00:08.052Z,78.10
2023-02-13T06:00:39.764Z,77.73
2023-02-13T06:01:11.521Z,78.21
2023-02-13T06:01:43.193Z,77.26
2023-02-13T06:02:14.953Z,77.58
2023-02-13T06:02:46.686Z,77.97
2023-02-13T06:03:18.462Z,77.23
2023-02-13T06:03:50.867Z,78.29
2023-02-13T06:04:22.642Z,78.23
2023-02-13T06:04:54.303Z,78.12
2023-02-13T06:05:25.962Z,77.25
2023-02-13T06:05:58.325Z,77.82
2023-02-13T06:06:29.993Z,77.66
2023-02-13T06:07:02.600Z,77.32
2023-02-13T06:07:34.301Z,77.71
2023-02-13T06:08:06.007Z,77.76
2023-02-13T06:08:37.703Z,77.49
2023-02-13T06:09:09.402Z,77.67
2023-02-13T06:09:41.082Z,78.16
2023-02-13T06:10:12.836Z,78.13
2023-02-13T06:10:45.261Z,78.34
2023-02-13T06:11:17.067Z,78.31
2023-02-13T06:11:48.954Z,77.75
2023-02-13T06:12:20.601Z,78.53
2023-02-13T06:12:52.222Z,78.26
2023-02-13T06:13:24.001Z,78.51
2023-02-13T06:13:55.626Z,78.54
2023-02-13T06:14:27.293Z,79.13
2023-02-13T06:14:59.028Z,79.64
2023-02-13T06:15:30.673Z,79.45
2023-02-13T06:16:02.342Z,79.10
2023-02-13T06:16:34.722Z,79.19
2023-02-13T06:17:06.397Z,79.19
2023-02-13T06:17:38.066Z,79.18
2023-02-13T06:18:10.471Z,80.60
2023-02-13T06:18:42.156Z,79.62
2023-02-13T06:19:13.805Z,80.00
2023-02-13T06:19:45.456Z,79.79
2023-02-13T06:20:17.142Z,80.27
2023-02-13T06:20:48.915Z,80.52
2023-02-13T06:21:21.259Z,79.79
2023-02-13T06:21:54.131Z,80.04
2023-02-13T06:22:25.854Z,80.61
2023-02-13T06:22:57.510Z,80.65
2023-02-13T06:23:30.018Z,80.45
2023-02-13T06:24:01.684Z,79.94
2023-02-13T06:24:33.364Z,80.41
2023-02-13T06:25:05.500Z,80.51
2023-02-13T06:25:38.190Z,80.96
2023-02-13T06:26:10.479Z,81.03
2023-02-13T06:26:42.155Z,80.83
2023-02-13T06:27:13.897Z,81.03
2023-02-13T06:27:45.638Z,81.65
2023-02-13T06:28:17.402Z,81.17
2023-02-13T06:28:49.457Z,81.56
2023-02-13T06:29:21.111Z,81.27
2023-02-13T06:29:52.854Z,80.78
2023-02-13T06:30:24.578Z,80.62
2023-02-13T06:30:56.708Z,81.51
2023-02-13T06:31:28.822Z,81.02
2023-02-13T06:32:00.645Z,80.44
2023-02-13T06:32:33.682Z,80.63
2023-02-13T06:33:05.450Z,80.81
2023-02-13T06:33:37.111Z,81.26
2023-02-13T06:34:08.797Z,80.99
2023-02-13T06:34:40.479Z,80.51
2023-02-13T06:35:12.160Z,80.78
2023-02-13T06:35:43.880Z,81.72
2023-02-13T06:36:15.599Z,81.79
2023-02-13T06:36:47.372Z,82.00
2023-02-13T06:37:19.012Z,86.95
2023-02-13T06:37:50.740Z,88.00
2023-02-13T06:38:22.396Z,88.54
2023-02-13T06:38:54.074Z,85.32
2023-02-13T06:39:25.730Z,82.86
2023-02-13T06:39:57.421Z,82.66
2023-02-13T06:40:29.112Z,81.87
2023-02-13T06:41:04.554Z,82.04
2023-02-13T06:41:36.270Z,81.56
2023-02-13T06:42:07.957Z,82.24
2023-02-13T06:42:40.074Z,81.15
2023-02-13T06:43:12.240Z,81.06
2023-02-13T06:43:44.163Z,81.61
2023-02-13T06:44:15.812Z,81.94
2023-02-13T06:44:47.606Z,81.00
2023-02-13T06:45:19.327Z,80.72
2023-02-13T06:45:51.891Z,80.86
2023-02-13T06:46:23.584Z,81.01
2023-02-13T06:46:55.284Z,80.96
2023-02-13T06:47:27.013Z,80.71
2023-02-13T06:47:58.785Z,80.40
2023-02-13T06:48:30.468Z,80.93
2023-02-13T06:49:02.278Z,80.41
2023-02-13T06:49:33.947Z,81.17
2023-02-13T06:50:06.396Z,80.32
2023-02-13T06:50:38.141Z,81.13
2023-02-13T06:51:09.850Z,80.59
2023-02-13T06:51:41.510Z,81.64
2023-02-13T06:52:13.254Z,80.85
2023-02-13T06:52:53.050Z,81.50
2023-02-13T06:53:25.701Z,81.56
2023-02-13T06:53:57.406Z,80.99
2023-02-13T06:54:44.625Z,81.54
2023-02-13T06:55:18.753Z,81.68
2023-02-13T06:55:55.476Z,80.70
2023-02-13T06:56:27.261Z,80.62
2023-02-13T06:56:58.922Z,80.46
2023-02-13T06:57:33.141Z,81.25
2023-02-13T06:58:05.161Z,80.90
2023-02-13T06:58:38.666Z,81.18
2023-02-13T06:59:10.377Z,80.05
2023-02-13T06:59:42.703Z,80.35
2023-02-13T07:00:17.062Z,80.39
2023-02-13T07:00:49.778Z,80.44
2023-02-13T07:01:21.792Z,79.84
2023-02-13T07:01:53.505Z,79.67
2023-02-13T07:02:25.257Z,80.26
2023-02-13T07:03:03.273Z,80.24
2023-02-13T07:03:35.011Z,79.23
2023-02-13T07:04:06.663Z,78.96
2023-02-13T07:04:38.430Z,79.54
2023-02-13T07:05:11.588Z,78.13
2023-02-13T07:05:44.531Z,77.98
2023-02-13T07:06:20.025Z,77.96
2023-02-13T07:06:54.411Z,79.08
2023-02-13T07:07:26.214Z,78.52
2023-02-13T07:07:58.451Z,79.04
2023-02-13T07:08:30.861Z,78.36
2023-02-13T07:09:04.743Z,78.31
2023-02-13T07:09:36.469Z,78.10
2023-02-13T07:10:10.997Z,78.03
2023-02-13T07:10:42.774Z,78.32
2023-02-13T07:11:19.101Z,77.45
2023-02-13T07:11:51.605Z,77.84
2023-02-13T07:12:24.187Z,77.12
2023-02-13T07:13:05.359Z,76.94
2023-02-13T07:13:37.553Z,76.99
2023-02-13T07:14:10.137Z,76.65
2023-02-13T07:14:41.796Z,76.91
2023-02-13T07:15:13.462Z,76.25
2023-02-13T07:15:45.362Z,76.07
2023-02-13T07:16:17.531Z,76.64
2023-02-13T07:16:49.189Z,75.76
2023-02-13T07:17:20.817Z,76.37
2023-02-13T07:17:59.030Z,76.00
2023-02-13T07:18:30.724Z,75.99
2023-02-13T07:19:02.518Z,76.01
2023-02-13T07:19:34.176Z,75.59
2023-02-13T07:20:06.636Z,76.44
2023-02-13T07:20:38.297Z,75.73
2023-02-13T07:21:10.051Z,74.86
2023-02-13T07:21:41.740Z,75.38
2023-02-13T07:22:13.413Z,75.42
2023-02-13T07:22:45.049Z,75.24
2023-02-13T07:23:16.687Z,74.63
2023-02-13T07:23:48.335Z,74.72
2023-02-13T07:24:20.307Z,74.34
2023-02-13T07:24:52.084Z,74.06
2023-02-13T07:25:23.759Z,74.59
2023-02-13T07:25:55.480Z,74.60
2023-02-13T07:26:27.169Z,74.31
2023-02-13T07:26:59.189Z,74.01
2023-02-13T07:27:30.936Z,73.59
2023-02-13T07:28:06.564Z,73.83
2023-02-13T07:28:38.357Z,73.31
2023-02-13T07:29:11.761Z,73.94
2023-02-13T07:29:44.005Z,73.67
2023-02-13T07:30:15.808Z,73.39
2023-02-13T07:30:47.468Z,73.01
2023-02-13T07:31:19.371Z,73.10
2023-02-13T07:31:51.168Z,73.04
2023-02-13T07:32:24.071Z,72.99
2023-02-13T07:33:01.793Z,73.58
2023-02-13T07:33:36.842Z,73.30
2023-02-13T07:34:08.583Z,73.86
2023-02-13T07:34:52.185Z,72.84
2023-02-13T07:35:32.434Z,73.94
2023-02-13T07:36:04.994Z,73.32
2023-02-13T07:36:36.768Z,73.43
2023-02-13T07:37:08.517Z,73.52
2023-02-13T07:37:40.179Z,74.19
2023-02-13T07:38:11.885Z,73.58
2023-02-13T07:38:44.131Z,73.48
2023-02-13T07:39:15.778Z,74.10
2023-02-13T07:39:47.448Z,74.20
2023-02-13T07:40:19.214Z,74.08
2023-02-13T07:40:50.943Z,73.70
2023-02-13T07:41:26.029Z,74.52
2023-02-13T07:41:57.742Z,73.94
2023-02-13T07:42:29.483Z,74.26
2023-02-13T07:43:02.039Z,74.09
2023-02-13T07:43:33.712Z,74.12
2023-02-13T07:44:05.568Z,74.58